3N8

Mahnomen County Airport

Mahnomen, Minnesota, USA
METAR K3N8 170355Z AUTO 34009KT 10SM OVC029 M10/M12 A3030 RMK AO2 T10961120
Observed Flight Rules
Nov-17 @ 03:55 UTC (44 minutes ago) Marginal Visual Flight Rules
Wind Visibility Clouds
340° at 9 knots 10 miles
  • Overcast at 2,900' AGL
Temperatures Readings
Current -10°C / 14°F
Dewpoint -12°C / 10°F
Humidity 85%
Altimeter 30.3" Hg
Pressure 1026 hPa
Elevation 383
METAR K3N8 170355Z AUTO 34009KT 10SM OVC029 M10/M12 A3030 RMK AO2 T10961120
Observed Flight Rules
Nov-17 @ 03:55 UTC
(44 minutes ago)
MVFR
Wind Visibility
340° at 9 knots 10 miles
Clouds
  • Overcast at 2,900' AGL
Temperature Dewpoint
-10°C / 14°F -12°C / 10°F
Humidity Altimeter Pressure
85% 30.3" Hg 1026 hPa